createdAt,value
2024-04-30T00:00:31.380Z,75.70
2024-04-30T00:01:31.331Z,75.49
2024-04-30T00:02:31.311Z,75.22
2024-04-30T00:03:31.349Z,75.19
2024-04-30T00:04:31.504Z,74.48
2024-04-30T00:05:31.305Z,74.78
2024-04-30T00:06:31.284Z,75.59
2024-04-30T00:07:31.363Z,74.88
2024-04-30T00:08:31.270Z,74.68
2024-04-30T00:09:31.249Z,75.02
2024-04-30T00:10:31.339Z,75.32
2024-04-30T00:11:31.278Z,74.71
2024-04-30T00:12:31.226Z,75.52
2024-04-30T00:13:31.294Z,75.93
2024-04-30T00:14:31.215Z,75.29
2024-04-30T00:15:31.206Z,74.88
2024-04-30T00:16:31.328Z,74.27
2024-04-30T00:17:31.218Z,75.29
2024-04-30T00:18:31.224Z,75.49
2024-04-30T00:19:31.268Z,76.03
2024-04-30T00:20:31.209Z,75.73
2024-04-30T00:21:31.185Z,77.25
2024-04-30T00:22:31.228Z,76.68
2024-04-30T00:23:31.142Z,76.88
2024-04-30T00:24:31.407Z,76.58
2024-04-30T00:25:31.273Z,76.64
2024-04-30T00:26:31.192Z,76.07
2024-04-30T00:27:31.121Z,75.67
2024-04-30T00:28:31.152Z,75.32
2024-04-30T00:29:31.216Z,74.92
2024-04-30T00:30:31.093Z,75.63
2024-04-30T00:31:31.166Z,75.63
2024-04-30T00:32:31.135Z,75.52
2024-04-30T00:33:31.080Z,75.43
2024-04-30T00:34:31.168Z,75.32
2024-04-30T00:35:31.098Z,75.73
2024-04-30T00:36:31.072Z,75.76
2024-04-30T00:37:31.080Z,75.87
2024-04-30T00:38:31.039Z,75.36
2024-04-30T00:39:31.035Z,75.87
2024-04-30T00:40:31.078Z,76.07
2024-04-30T00:41:31.042Z,76.48
2024-04-30T00:42:31.065Z,77.49
2024-04-30T00:43:31.070Z,78.20
2024-04-30T00:44:31.033Z,77.22
2024-04-30T00:45:31.015Z,77.43
2024-04-30T00:46:31.145Z,77.36
2024-04-30T00:47:31.010Z,76.92
2024-04-30T00:48:31.098Z,77.22
2024-04-30T00:49:31.082Z,76.07
2024-04-30T00:50:31.045Z,77.22
2024-04-30T00:51:31.235Z,76.82
2024-04-30T00:52:31.206Z,76.31
2024-04-30T00:53:31.328Z,76.21
2024-04-30T00:54:31.166Z,75.29
2024-04-30T00:55:31.003Z,75.90
2024-04-30T00:56:30.912Z,75.49
2024-04-30T00:57:30.909Z,75.90
2024-04-30T00:58:30.979Z,76.61
2024-04-30T00:59:30.880Z,76.61
2024-04-30T01:00:30.907Z,76.31
2024-04-30T01:01:31.030Z,76.72
2024-04-30T01:02:30.924Z,76.51
2024-04-30T01:03:30.961Z,77.43
2024-04-30T01:04:30.930Z,76.61
2024-04-30T01:05:30.846Z,76.72
2024-04-30T01:06:30.837Z,77.02
2024-04-30T01:07:31.113Z,76.01
2024-04-30T01:08:30.877Z,77.06
2024-04-30T01:09:30.823Z,76.45
2024-04-30T01:10:30.874Z,77.16
2024-04-30T01:11:30.858Z,76.86
2024-04-30T01:12:30.798Z,76.01
2024-04-30T01:13:31.646Z,76.21
2024-04-30T01:14:30.842Z,77.06
2024-04-30T01:15:30.776Z,76.45
2024-04-30T01:16:30.834Z,76.65
2024-04-30T01:17:30.888Z,76.82
2024-04-30T01:18:30.770Z,77.36
2024-04-30T01:19:30.847Z,79.09
2024-04-30T01:20:30.737Z,78.28
2024-04-30T01:21:30.739Z,78.11
2024-04-30T01:22:30.854Z,78.41
2024-04-30T01:23:30.805Z,77.60
2024-04-30T01:24:30.753Z,77.91
2024-04-30T01:25:30.839Z,78.01
2024-04-30T01:26:30.739Z,78.41
2024-04-30T01:27:30.723Z,77.09
2024-04-30T01:28:30.823Z,77.50
2024-04-30T01:29:30.690Z,78.21
2024-04-30T01:30:30.732Z,78.86
2024-04-30T01:31:30.731Z,78.66
2024-04-30T01:32:30.726Z,78.66
2024-04-30T01:33:30.704Z,78.96
2024-04-30T01:34:30.774Z,78.66
2024-04-30T01:35:30.681Z,77.74
2024-04-30T01:36:30.638Z,79.06
2024-04-30T01:37:30.706Z,78.69
2024-04-30T01:38:30.719Z,78.86
2024-04-30T01:39:30.612Z,78.66
2024-04-30T01:40:30.664Z,79.06
2024-04-30T01:41:30.680Z,78.66
2024-04-30T01:42:30.638Z,78.55
2024-04-30T01:43:31.048Z,78.76
2024-04-30T01:44:30.582Z,79.16
2024-04-30T01:45:30.641Z,78.96
2024-04-30T01:46:30.660Z,78.45
2024-04-30T01:47:30.670Z,78.28
2024-04-30T01:48:30.740Z,79.06
2024-04-30T01:49:30.704Z,78.89
2024-04-30T01:50:30.608Z,79.85
2024-04-30T01:51:30.531Z,80.26
2024-04-30T01:52:30.633Z,80.32
2024-04-30T01:53:30.579Z,79.95
2024-04-30T01:54:30.540Z,79.50
2024-04-30T01:55:30.656Z,80.05
2024-04-30T01:56:30.515Z,79.81
2024-04-30T01:57:30.537Z,79.50
2024-04-30T01:58:30.775Z,79.20
2024-04-30T01:59:30.481Z,79.00
2024-04-30T02:00:30.527Z,78.86
2024-04-30T02:01:30.470Z,78.66
2024-04-30T02:02:30.535Z,79.00
2024-04-30T02:03:30.602Z,78.80
2024-04-30T02:04:38.560Z,78.28
2024-04-30T02:05:31.662Z,77.33
2024-04-30T02:06:30.437Z,76.86
2024-04-30T02:07:30.541Z,77.26
2024-04-30T02:08:30.474Z,77.13
2024-04-30T02:09:31.393Z,77.78
2024-04-30T02:10:30.461Z,78.39
2024-04-30T02:11:30.455Z,78.96
2024-04-30T02:12:30.466Z,77.78
2024-04-30T02:13:30.466Z,78.28
2024-04-30T02:14:30.466Z,78.35
2024-04-30T02:15:30.488Z,78.86
2024-04-30T02:16:30.368Z,77.47
2024-04-30T02:17:30.571Z,77.47
2024-04-30T02:18:30.465Z,77.87
2024-04-30T02:19:30.578Z,78.08
2024-04-30T02:20:30.332Z,78.86
2024-04-30T02:21:30.427Z,79.00
2024-04-30T02:22:30.515Z,79.81
2024-04-30T02:23:30.378Z,80.50
2024-04-30T02:24:30.387Z,80.70
2024-04-30T02:25:30.364Z,80.46
2024-04-30T02:26:30.408Z,79.64
2024-04-30T02:27:30.409Z,80.05
2024-04-30T02:28:30.541Z,79.58
2024-04-30T02:29:30.371Z,80.56
2024-04-30T02:30:30.340Z,81.21
2024-04-30T02:31:30.360Z,81.35
2024-04-30T02:32:30.452Z,81.52
2024-04-30T02:33:30.303Z,81.62
2024-04-30T02:34:30.325Z,81.52
2024-04-30T02:35:30.292Z,81.82
2024-04-30T02:36:30.342Z,81.11
2024-04-30T02:37:30.248Z,81.11
2024-04-30T02:38:30.250Z,81.52
2024-04-30T02:39:30.236Z,80.36
2024-04-30T02:40:30.228Z,80.19
2024-04-30T02:41:30.211Z,81.17
2024-04-30T02:42:30.178Z,81.41
2024-04-30T02:43:30.741Z,80.91
2024-04-30T02:44:30.249Z,80.50
2024-04-30T02:45:30.183Z,80.26
2024-04-30T02:46:30.304Z,80.36
2024-04-30T02:47:30.286Z,81.11
2024-04-30T02:48:30.226Z,81.07
2024-04-30T02:49:30.359Z,81.01
2024-04-30T02:50:30.160Z,81.21
2024-04-30T02:51:30.115Z,81.27
2024-04-30T02:52:30.235Z,80.77
2024-04-30T02:53:30.121Z,80.40
2024-04-30T02:54:30.089Z,79.85
2024-04-30T02:55:30.222Z,79.75
2024-04-30T02:56:30.103Z,80.05
2024-04-30T02:57:30.079Z,79.91
2024-04-30T02:58:30.165Z,81.17
2024-04-30T02:59:30.051Z,81.17
2024-04-30T03:00:30.109Z,80.56
2024-04-30T03:01:30.069Z,80.46
2024-04-30T03:02:30.047Z,80.56
2024-04-30T03:03:30.140Z,79.95
2024-04-30T03:04:30.421Z,79.44
2024-04-30T03:05:30.024Z,78.80
2024-04-30T03:06:30.094Z,78.89
2024-04-30T03:07:30.051Z,79.30
2024-04-30T03:08:29.996Z,78.83
2024-04-30T03:09:30.001Z,78.63
2024-04-30T03:10:30.022Z,78.80
2024-04-30T03:11:30.027Z,79.20
2024-04-30T03:12:29.996Z,79.54
2024-04-30T03:13:30.006Z,79.75
2024-04-30T03:14:29.955Z,79.64
2024-04-30T03:15:29.968Z,79.85
2024-04-30T03:16:30.009Z,80.46
2024-04-30T03:17:30.285Z,79.64
2024-04-30T03:18:29.942Z,79.85
2024-04-30T03:19:30.047Z,79.64
2024-04-30T03:20:29.941Z,79.14
2024-04-30T03:21:29.903Z,78.59
2024-04-30T03:22:29.963Z,78.83
2024-04-30T03:23:29.950Z,78.59
2024-04-30T03:24:29.887Z,78.83
2024-04-30T03:25:29.902Z,79.10
2024-04-30T03:26:29.901Z,78.73
2024-04-30T03:27:30.944Z,79.34
2024-04-30T03:28:29.924Z,79.14
2024-04-30T03:29:29.856Z,79.75
2024-04-30T03:30:29.851Z,79.54
2024-04-30T03:31:29.988Z,78.83
2024-04-30T03:32:29.937Z,79.00
2024-04-30T03:33:29.995Z,79.75
2024-04-30T03:34:29.903Z,80.77
2024-04-30T03:35:29.820Z,81.66
2024-04-30T03:36:29.795Z,81.86
2024-04-30T03:37:29.839Z,82.78
2024-04-30T03:38:29.797Z,82.37
2024-04-30T03:39:29.800Z,81.96
2024-04-30T03:40:29.909Z,81.96
2024-04-30T03:41:29.779Z,81.52
2024-04-30T03:42:29.758Z,82.64
2024-04-30T03:43:29.775Z,82.43
2024-04-30T03:44:29.766Z,82.33
2024-04-30T03:45:29.735Z,82.43
2024-04-30T03:46:29.796Z,81.93
2024-04-30T03:47:29.807Z,81.41
2024-04-30T03:48:29.754Z,81.41
2024-04-30T03:49:29.766Z,80.46
2024-04-30T03:50:29.699Z,80.77
2024-04-30T03:51:29.692Z,80.26
2024-04-30T03:52:29.749Z,80.66
2024-04-30T03:53:29.721Z,81.48
2024-04-30T03:54:29.670Z,82.03
2024-04-30T03:55:29.723Z,82.37
2024-04-30T03:56:29.678Z,82.17
2024-04-30T03:57:29.656Z,82.27
2024-04-30T03:58:29.723Z,82.51
2024-04-30T03:59:29.659Z,82.57
2024-04-30T04:00:29.695Z,82.57
2024-04-30T04:01:29.644Z,82.07
2024-04-30T04:02:29.644Z,82.07
2024-04-30T04:03:29.691Z,81.96
2024-04-30T04:04:29.758Z,82.07
2024-04-30T04:05:29.593Z,81.35
2024-04-30T04:06:29.591Z,81.04
2024-04-30T04:07:29.635Z,81.41
2024-04-30T04:08:29.597Z,81.21
2024-04-30T04:09:29.582Z,81.66
2024-04-30T04:10:29.643Z,81.56
2024-04-30T04:11:29.621Z,81.29
2024-04-30T04:12:29.563Z,82.17
2024-04-30T04:13:29.617Z,81.96
2024-04-30T04:14:29.546Z,82.07
2024-04-30T04:15:29.553Z,82.27
2024-04-30T04:16:29.604Z,82.68
2024-04-30T04:17:29.630Z,82.57
2024-04-30T04:18:29.597Z,81.45
2024-04-30T04:19:29.547Z,82.78
2024-04-30T04:20:29.516Z,82.68
2024-04-30T04:21:29.535Z,82.57
2024-04-30T04:22:29.532Z,82.13
2024-04-30T04:23:29.537Z,82.03
2024-04-30T04:24:29.480Z,81.41
2024-04-30T04:25:29.597Z,81.31
2024-04-30T04:26:29.475Z,81.01
2024-04-30T04:27:29.448Z,80.36
2024-04-30T04:28:29.874Z,80.29
2024-04-30T04:29:29.455Z,80.66
2024-04-30T04:30:29.461Z,80.56
2024-04-30T04:31:29.455Z,80.05
2024-04-30T04:32:29.496Z,79.54
2024-04-30T04:33:29.411Z,79.03
2024-04-30T04:34:29.576Z,79.75
2024-04-30T04:35:29.461Z,79.20
2024-04-30T04:36:29.421Z,79.34
2024-04-30T04:37:29.473Z,79.91
2024-04-30T04:38:29.414Z,79.95
2024-04-30T04:39:29.383Z,80.56
2024-04-30T04:40:29.440Z,80.56
2024-04-30T04:41:29.366Z,81.17
2024-04-30T04:42:29.379Z,81.01
2024-04-30T04:43:29.353Z,81.27
2024-04-30T04:44:29.353Z,81.72
2024-04-30T04:45:29.355Z,81.79
2024-04-30T04:46:29.395Z,82.09
2024-04-30T04:47:29.385Z,81.21
2024-04-30T04:48:29.519Z,81.48
2024-04-30T04:49:29.326Z,80.46
2024-04-30T04:50:29.294Z,79.71
2024-04-30T04:51:29.295Z,80.05
2024-04-30T04:52:29.393Z,80.02
2024-04-30T04:53:29.304Z,79.71
2024-04-30T04:54:29.264Z,79.00
2024-04-30T04:55:29.301Z,79.34
2024-04-30T04:56:29.266Z,79.91
2024-04-30T04:57:29.275Z,79.03
2024-04-30T04:58:29.347Z,79.30
2024-04-30T04:59:29.270Z,79.00
2024-04-30T05:00:29.267Z,79.00
2024-04-30T05:01:29.287Z,78.89
2024-04-30T05:02:29.269Z,79.20
2024-04-30T05:03:29.251Z,78.76
2024-04-30T05:04:29.296Z,79.00
2024-04-30T05:05:29.187Z,79.16
2024-04-30T05:06:29.220Z,79.88
2024-04-30T05:07:29.231Z,80.02
2024-04-30T05:08:29.258Z,80.52
2024-04-30T05:09:29.153Z,81.34
2024-04-30T05:10:29.313Z,81.24
2024-04-30T05:11:29.206Z,81.44
2024-04-30T05:12:29.131Z,81.04
2024-04-30T05:13:29.186Z,80.52
2024-04-30T05:14:36.405Z,80.11
2024-04-30T05:15:29.115Z,79.98
2024-04-30T05:16:29.183Z,79.98
2024-04-30T05:17:29.284Z,79.81
2024-04-30T05:18:29.128Z,79.77
2024-04-30T05:19:29.143Z,80.08
2024-04-30T05:20:29.085Z,79.23
2024-04-30T05:21:29.099Z,78.89
2024-04-30T05:22:29.112Z,79.05
2024-04-30T05:23:29.104Z,78.55
2024-04-30T05:24:29.079Z,78.64
2024-04-30T05:25:29.329Z,79.02
2024-04-30T05:26:29.050Z,78.61
2024-04-30T05:27:29.036Z,77.29
2024-04-30T05:28:29.217Z,77.15
2024-04-30T05:29:29.054Z,77.56
2024-04-30T05:30:29.015Z,77.15
2024-04-30T05:31:29.033Z,77.32
2024-04-30T05:32:29.114Z,76.67
2024-04-30T05:33:29.586Z,75.66
2024-04-30T05:34:29.141Z,75.76
2024-04-30T05:35:28.988Z,76.17
2024-04-30T05:36:28.972Z,75.90
2024-04-30T05:37:29.009Z,76.10
2024-04-30T05:38:28.990Z,75.79
2024-04-30T05:39:28.994Z,76.31
2024-04-30T05:40:28.997Z,76.40
2024-04-30T05:41:29.023Z,76.71
2024-04-30T05:42:28.929Z,76.91
2024-04-30T05:43:28.984Z,76.51
2024-04-30T05:44:28.924Z,76.91
2024-04-30T05:45:28.908Z,76.27
2024-04-30T05:46:29.012Z,76.81
2024-04-30T05:47:28.901Z,77.22
2024-04-30T05:48:28.917Z,77.32
2024-04-30T05:49:28.907Z,76.31
2024-04-30T05:50:28.892Z,77.32
2024-04-30T05:51:28.868Z,75.86
2024-04-30T05:52:28.911Z,76.27
2024-04-30T05:53:28.880Z,76.57
2024-04-30T05:54:28.856Z,76.37
2024-04-30T05:55:28.862Z,76.43
2024-04-30T05:56:28.851Z,76.98
2024-04-30T05:57:28.852Z,76.98
2024-04-30T05:58:28.891Z,76.84
2024-04-30T05:59:28.824Z,76.87
2024-04-30T06:00:29.277Z,76.43
2024-04-30T06:01:28.821Z,77.14
2024-04-30T06:02:28.784Z,76.78
2024-04-30T06:03:28.850Z,77.62
2024-04-30T06:04:28.860Z,78.74
2024-04-30T06:05:29.680Z,78.53
2024-04-30T06:06:28.762Z,77.32
2024-04-30T06:07:28.846Z,77.18
2024-04-30T06:08:28.751Z,77.38
2024-04-30T06:09:28.774Z,77.28
2024-04-30T06:10:28.793Z,77.89
2024-04-30T06:11:28.797Z,78.64
2024-04-30T06:12:28.749Z,79.14
2024-04-30T06:13:28.741Z,79.51
2024-04-30T06:14:28.728Z,79.82
2024-04-30T06:15:28.695Z,79.00
2024-04-30T06:16:28.760Z,78.46
2024-04-30T06:17:28.728Z,78.42
2024-04-30T06:18:28.724Z,76.36
2024-04-30T06:19:28.730Z,77.07
2024-04-30T06:20:28.660Z,76.83
2024-04-30T06:21:31.774Z,75.62
2024-04-30T06:22:29.690Z,75.31
2024-04-30T06:23:28.654Z,75.11
2024-04-30T06:24:28.656Z,75.38
2024-04-30T06:25:28.654Z,74.19
2024-04-30T06:26:28.634Z,73.66
2024-04-30T06:27:28.744Z,73.08
2024-04-30T06:28:30.282Z,73.49
2024-04-30T06:29:28.731Z,73.15
2024-04-30T06:30:28.623Z,72.48
2024-04-30T06:31:28.666Z,71.67
2024-04-30T06:32:28.594Z,71.87
2024-04-30T06:33:28.733Z,71.67
2024-04-30T06:34:28.625Z,71.91
2024-04-30T06:35:28.592Z,72.11
2024-04-30T06:36:28.558Z,72.81
2024-04-30T06:37:28.596Z,73.35
2024-04-30T06:38:28.539Z,73.66
2024-04-30T06:39:28.580Z,74.30
2024-04-30T06:40:28.548Z,74.57
2024-04-30T06:41:28.526Z,74.10
2024-04-30T06:42:28.540Z,74.50
2024-04-30T06:43:28.541Z,74.63
2024-04-30T06:44:28.567Z,73.93
2024-04-30T06:45:28.495Z,73.32
2024-04-30T06:46:28.551Z,73.08
2024-04-30T06:47:28.520Z,73.11
2024-04-30T06:48:28.530Z,71.00
2024-04-30T06:49:28.535Z,70.97
2024-04-30T06:50:28.536Z,70.76
2024-04-30T06:51:28.465Z,71.20
2024-04-30T06:52:28.510Z,71.97
2024-04-30T06:53:28.442Z,70.86
2024-04-30T06:54:28.473Z,70.02
2024-04-30T06:55:28.501Z,69.62
2024-04-30T06:56:28.418Z,69.29
2024-04-30T06:57:28.429Z,69.96
2024-04-30T06:58:28.452Z,68.24
2024-04-30T06:59:28.417Z,68.11
2024-04-30T07:00:28.412Z,66.91
2024-04-30T07:01:28.450Z,67.38
2024-04-30T07:02:28.387Z,67.74
2024-04-30T07:03:28.372Z,66.71
2024-04-30T07:04:28.433Z,66.05
2024-04-30T07:05:28.457Z,65.34
2024-04-30T07:06:28.420Z,65.24
2024-04-30T07:07:28.369Z,64.11
2024-04-30T07:08:28.364Z,62.07
2024-04-30T07:09:28.321Z,62.74
2024-04-30T07:10:28.357Z,62.04
2024-04-30T07:11:28.354Z,61.01
2024-04-30T07:12:28.337Z,61.61
2024-04-30T07:13:28.329Z,61.28
2024-04-30T07:14:28.295Z,61.35
2024-04-30T07:15:28.282Z,61.22
2024-04-30T07:16:28.349Z,58.82
2024-04-30T07:17:28.523Z,60.10
2024-04-30T07:18:28.449Z,59.66
2024-04-30T07:19:28.284Z,58.17
2024-04-30T07:20:28.247Z,57.54
2024-04-30T07:21:28.241Z,57.11
2024-04-30T07:22:28.279Z,56.61
2024-04-30T07:23:28.223Z,56.41
2024-04-30T07:24:28.220Z,56.41
2024-04-30T07:25:29.180Z,57.41
2024-04-30T07:26:28.207Z,56.51
2024-04-30T07:27:28.225Z,56.48
2024-04-30T07:28:28.239Z,56.18
2024-04-30T07:29:28.212Z,56.09
2024-04-30T07:30:28.208Z,55.76
2024-04-30T07:31:28.275Z,56.06
2024-04-30T07:32:28.255Z,55.93
2024-04-30T07:33:28.316Z,55.43
2024-04-30T07:34:28.409Z,55.13
2024-04-30T07:35:28.144Z,54.31
2024-04-30T07:36:28.136Z,54.19
2024-04-30T07:37:28.171Z,54.08
2024-04-30T07:38:28.126Z,54.19
2024-04-30T07:39:28.114Z,54.58
2024-04-30T07:40:28.133Z,54.46
2024-04-30T07:41:28.110Z,54.96
2024-04-30T07:42:28.126Z,54.13
2024-04-30T07:43:28.173Z,54.26
2024-04-30T07:44:28.101Z,52.76
2024-04-30T07:45:28.112Z,53.24
2024-04-30T07:46:28.208Z,53.02
2024-04-30T07:47:28.157Z,51.32
2024-04-30T07:48:28.357Z,52.00
2024-04-30T07:49:28.073Z,52.59
2024-04-30T07:50:28.060Z,52.99
2024-04-30T07:51:28.037Z,52.99
2024-04-30T07:52:28.073Z,52.59
2024-04-30T07:53:28.111Z,54.08
2024-04-30T07:54:28.020Z,53.28
2024-04-30T07:55:28.063Z,51.50
2024-04-30T07:56:28.015Z,51.47
2024-04-30T07:57:28.002Z,52.94
2024-04-30T07:58:28.029Z,51.54
2024-04-30T07:59:27.987Z,51.23
2024-04-30T08:00:28.094Z,50.73
2024-04-30T08:01:27.999Z,50.73
2024-04-30T08:02:28.012Z,50.13
2024-04-30T08:03:28.018Z,50.40
2024-04-30T08:04:28.035Z,50.31
2024-04-30T08:05:28.651Z,50.51
2024-04-30T08:06:27.946Z,49.81
2024-04-30T08:07:27.995Z,49.32
2024-04-30T08:08:27.955Z,50.58
2024-04-30T08:09:27.921Z,49.21
2024-04-30T08:10:27.979Z,50.68
2024-04-30T08:11:27.930Z,49.57
2024-04-30T08:12:27.905Z,49.76
2024-04-30T08:13:27.915Z,48.77
2024-04-30T08:14:27.915Z,48.60
2024-04-30T08:15:27.925Z,49.17
2024-04-30T08:16:27.964Z,49.37
2024-04-30T08:17:27.978Z,49.07
2024-04-30T08:18:27.890Z,48.38
2024-04-30T08:19:27.936Z,49.15
2024-04-30T08:20:27.935Z,49.32
2024-04-30T08:21:27.886Z,48.92
2024-04-30T08:22:27.878Z,48.03
2024-04-30T08:23:27.852Z,48.72
2024-04-30T08:24:28.137Z,49.19
2024-04-30T08:25:27.852Z,48.50
2024-04-30T08:26:27.811Z,47.59
2024-04-30T08:27:27.819Z,48.77
2024-04-30T08:28:27.936Z,48.18
2024-04-30T08:29:27.848Z,47.12
2024-04-30T08:30:27.783Z,47.49
2024-04-30T08:31:27.799Z,49.27
2024-04-30T08:32:27.916Z,47.27
2024-04-30T08:33:27.874Z,47.27
2024-04-30T08:34:27.844Z,47.27
2024-04-30T08:35:27.761Z,46.78
2024-04-30T08:36:30.443Z,46.50
2024-04-30T08:37:29.262Z,45.51
2024-04-30T08:38:27.751Z,47.66
2024-04-30T08:39:27.776Z,47.89
2024-04-30T08:40:27.736Z,46.38
2024-04-30T08:41:27.713Z,45.27
2024-04-30T08:42:27.702Z,46.85
2024-04-30T08:43:27.735Z,47.05
2024-04-30T08:44:27.747Z,47.07
2024-04-30T08:45:27.680Z,46.95
2024-04-30T08:46:27.734Z,44.90
2024-04-30T08:47:27.838Z,46.75
2024-04-30T08:48:28.579Z,46.26
2024-04-30T08:49:33.946Z,44.97
2024-04-30T08:50:28.688Z,47.25
2024-04-30T08:51:27.632Z,46.93
2024-04-30T08:52:27.665Z,46.53
2024-04-30T08:53:27.626Z,46.53
2024-04-30T08:54:27.638Z,46.61
2024-04-30T08:55:27.643Z,45.72
2024-04-30T08:56:27.595Z,45.62
2024-04-30T08:57:27.614Z,46.29
2024-04-30T08:58:27.609Z,45.67
2024-04-30T08:59:27.597Z,45.38
2024-04-30T09:00:27.581Z,45.57
2024-04-30T09:01:27.611Z,44.96
2024-04-30T09:02:27.572Z,44.65
2024-04-30T09:03:27.661Z,42.58
2024-04-30T09:04:28.295Z,43.17
2024-04-30T09:05:27.539Z,43.24
2024-04-30T09:06:27.524Z,42.55
2024-04-30T09:07:27.550Z,42.55
2024-04-30T09:08:27.711Z,41.77
2024-04-30T09:09:27.502Z,42.76
2024-04-30T09:10:27.544Z,42.54
2024-04-30T09:11:27.581Z,43.03
2024-04-30T09:12:27.738Z,43.15
2024-04-30T09:13:27.543Z,42.73
2024-04-30T09:14:27.495Z,42.34
2024-04-30T09:15:27.477Z,41.35
2024-04-30T09:16:27.645Z,42.73
2024-04-30T09:17:27.503Z,43.42
2024-04-30T09:18:27.466Z,43.82
2024-04-30T09:19:27.536Z,42.81
2024-04-30T09:20:27.419Z,42.52
2024-04-30T09:21:27.428Z,43.77
2024-04-30T09:22:27.530Z,42.10
2024-04-30T09:23:27.413Z,41.31
2024-04-30T09:24:27.660Z,42.30
2024-04-30T09:25:27.432Z,41.80
2024-04-30T09:26:27.462Z,42.96
2024-04-30T09:27:27.409Z,40.51
2024-04-30T09:28:27.455Z,39.21
2024-04-30T09:29:27.436Z,40.90
2024-04-30T09:30:27.679Z,41.37
2024-04-30T09:31:27.365Z,41.17
2024-04-30T09:32:27.420Z,42.43
2024-04-30T09:33:27.402Z,40.55
2024-04-30T09:34:27.337Z,39.76
2024-04-30T09:35:27.300Z,39.76
2024-04-30T09:36:27.326Z,40.45
2024-04-30T09:37:27.344Z,40.45
2024-04-30T09:38:27.317Z,40.96
2024-04-30T09:39:27.291Z,40.25
2024-04-30T09:40:27.327Z,40.35
2024-04-30T09:41:27.262Z,40.47
2024-04-30T09:42:27.426Z,41.06
2024-04-30T09:43:27.292Z,41.14
2024-04-30T09:44:27.240Z,40.64
2024-04-30T09:45:27.236Z,42.53
2024-04-30T09:46:27.308Z,41.77
2024-04-30T09:47:27.311Z,40.88
2024-04-30T09:48:27.250Z,42.63
2024-04-30T09:49:27.284Z,40.56
2024-04-30T09:50:27.206Z,40.66
2024-04-30T09:51:27.204Z,41.24
2024-04-30T09:52:27.222Z,42.29
2024-04-30T09:53:27.309Z,39.94
2024-04-30T09:54:28.483Z,40.70
2024-04-30T09:55:27.338Z,41.39
2024-04-30T09:56:27.182Z,40.29
2024-04-30T09:57:27.172Z,38.90
2024-04-30T09:58:27.209Z,40.08
2024-04-30T09:59:27.155Z,39.19
2024-04-30T10:00:28.874Z,38.60
2024-04-30T10:01:27.215Z,40.27
2024-04-30T10:02:27.125Z,39.49
2024-04-30T10:03:27.145Z,39.88
2024-04-30T10:04:27.166Z,38.98
2024-04-30T10:05:27.180Z,39.86
2024-04-30T10:06:27.103Z,38.57
2024-04-30T10:07:27.150Z,39.25
2024-04-30T10:08:27.128Z,39.94
2024-04-30T10:09:27.092Z,40.23
2024-04-30T10:10:27.182Z,39.06
2024-04-30T10:11:27.084Z,39.43
2024-04-30T10:12:29.454Z,40.00
2024-04-30T10:13:27.138Z,40.19
2024-04-30T10:14:27.074Z,39.22
2024-04-30T10:15:27.065Z,39.88
2024-04-30T10:16:27.092Z,38.22
2024-04-30T10:17:27.164Z,36.94
2024-04-30T10:18:27.038Z,37.71
2024-04-30T10:19:27.106Z,37.70
2024-04-30T10:20:27.030Z,37.21
2024-04-30T10:21:27.030Z,38.18
2024-04-30T10:22:27.076Z,36.82
2024-04-30T10:23:26.996Z,38.26
2024-04-30T10:24:27.020Z,37.87
2024-04-30T10:25:27.023Z,37.57
2024-04-30T10:26:27.001Z,36.51
2024-04-30T10:27:26.979Z,36.90
2024-04-30T10:28:27.013Z,36.41
2024-04-30T10:29:26.977Z,36.00
2024-04-30T10:30:26.956Z,37.95
2024-04-30T10:31:26.982Z,38.06
2024-04-30T10:32:26.967Z,36.98
2024-04-30T10:33:26.951Z,36.49
2024-04-30T10:34:27.055Z,35.39
2024-04-30T10:35:26.967Z,37.43
2024-04-30T10:36:26.906Z,38.49
2024-04-30T10:37:26.924Z,34.97
2024-04-30T10:38:27.053Z,36.24
2024-04-30T10:39:27.483Z,35.36
2024-04-30T10:40:26.871Z,34.95
2024-04-30T10:41:26.877Z,36.22
2024-04-30T10:42:26.868Z,35.02
2024-04-30T10:43:26.900Z,35.00
2024-04-30T10:44:26.906Z,34.32
2024-04-30T10:45:26.851Z,33.44
2024-04-30T10:46:26.866Z,34.30
2024-04-30T10:47:26.901Z,35.35
2024-04-30T10:48:26.884Z,34.75
2024-04-30T10:49:26.841Z,33.28
2024-04-30T10:50:27.212Z,32.59
2024-04-30T10:51:26.892Z,32.49
2024-04-30T10:52:26.848Z,32.86
2024-04-30T10:53:26.800Z,32.78
2024-04-30T10:54:26.812Z,32.18
2024-04-30T10:55:26.803Z,32.67
2024-04-30T10:56:26.782Z,32.47
2024-04-30T10:57:26.777Z,31.60
2024-04-30T10:58:26.783Z,32.41
2024-04-30T10:59:26.889Z,32.89
2024-04-30T11:00:26.833Z,32.49
2024-04-30T11:01:26.911Z,31.50
2024-04-30T11:02:26.741Z,31.97
2024-04-30T11:03:26.811Z,31.68
2024-04-30T11:04:27.912Z,31.29
2024-04-30T11:05:26.893Z,31.47
2024-04-30T11:06:26.737Z,29.64
2024-04-30T11:07:26.716Z,31.62
2024-04-30T11:08:26.750Z,31.53
2024-04-30T11:09:28.662Z,32.20
2024-04-30T11:10:26.702Z,32.86
2024-04-30T11:11:26.693Z,32.54
2024-04-30T11:12:26.674Z,31.96
2024-04-30T11:13:26.764Z,30.88
2024-04-30T11:14:26.666Z,30.71
2024-04-30T11:15:26.653Z,31.81
2024-04-30T11:16:26.687Z,31.20
2024-04-30T11:17:27.049Z,31.97
2024-04-30T11:18:26.777Z,31.67
2024-04-30T11:19:26.646Z,30.88
2024-04-30T11:20:26.675Z,31.94
2024-04-30T11:21:26.611Z,31.56
2024-04-30T11:22:26.617Z,32.51
2024-04-30T11:23:26.638Z,31.70
2024-04-30T11:24:26.608Z,31.10
2024-04-30T11:25:26.612Z,30.12
2024-04-30T11:26:26.654Z,29.80
2024-04-30T11:27:26.576Z,28.55
2024-04-30T11:28:26.620Z,29.50
2024-04-30T11:30:26.554Z,28.81
2024-04-30T11:31:26.584Z,28.80
2024-04-30T11:32:26.618Z,29.47
2024-04-30T11:33:29.846Z,27.83
2024-04-30T11:34:26.616Z,28.02
2024-04-30T11:35:26.539Z,28.12
2024-04-30T11:36:26.529Z,28.11
2024-04-30T11:37:26.620Z,27.82
2024-04-30T11:38:26.609Z,28.11
2024-04-30T11:39:26.536Z,28.88
2024-04-30T11:40:26.538Z,29.74
2024-04-30T11:41:26.490Z,28.41
2024-04-30T11:42:31.273Z,29.49
2024-04-30T11:43:27.734Z,28.89
2024-04-30T11:44:26.470Z,28.12
2024-04-30T11:45:26.460Z,27.74
2024-04-30T11:46:26.502Z,27.93
2024-04-30T11:47:26.537Z,28.04
2024-04-30T11:48:29.599Z,28.15
2024-04-30T11:49:26.566Z,28.64
2024-04-30T11:50:26.431Z,29.42
2024-04-30T11:51:26.420Z,30.10
2024-04-30T11:52:26.466Z,29.52
2024-04-30T11:53:26.543Z,28.64
2024-04-30T11:54:26.434Z,28.84
2024-04-30T11:55:26.440Z,30.76
2024-04-30T11:56:26.511Z,29.03
2024-04-30T11:57:26.428Z,29.32
2024-04-30T11:58:26.461Z,28.09
2024-04-30T11:59:26.409Z,30.03
2024-04-30T12:00:26.381Z,29.64
2024-04-30T12:01:26.545Z,29.45
2024-04-30T12:02:26.398Z,28.97
2024-04-30T12:03:26.343Z,31.27
2024-04-30T12:04:26.648Z,29.34
2024-04-30T12:05:26.356Z,28.07
2024-04-30T12:06:26.399Z,29.80
2024-04-30T12:07:26.358Z,30.18
2024-04-30T12:08:26.323Z,28.53
2024-04-30T12:09:26.384Z,28.15
2024-04-30T12:10:26.339Z,29.89
2024-04-30T12:11:26.397Z,29.69
2024-04-30T12:12:26.304Z,29.11
2024-04-30T12:13:26.381Z,29.31
2024-04-30T12:14:26.304Z,28.63
2024-04-30T12:15:26.317Z,28.44
2024-04-30T12:16:26.385Z,29.31
2024-04-30T12:17:26.444Z,29.03
2024-04-30T12:18:26.309Z,29.82
2024-04-30T12:19:26.346Z,30.01
2024-04-30T12:20:26.283Z,30.01
2024-04-30T12:21:26.243Z,28.98
2024-04-30T12:22:26.319Z,28.30
2024-04-30T12:23:26.247Z,29.56
2024-04-30T12:24:26.279Z,29.66
2024-04-30T12:25:26.270Z,30.05
2024-04-30T12:26:26.246Z,30.35
2024-04-30T12:27:26.237Z,30.05
2024-04-30T12:28:26.243Z,30.93
2024-04-30T12:29:26.223Z,31.25
2024-04-30T12:30:26.192Z,31.07
2024-04-30T12:31:26.316Z,30.71
2024-04-30T12:32:26.230Z,30.54
2024-04-30T12:33:26.225Z,32.37
2024-04-30T12:34:26.225Z,31.87
2024-04-30T12:35:26.237Z,31.31
2024-04-30T12:36:26.262Z,32.46
2024-04-30T12:37:26.224Z,31.97
2024-04-30T12:38:26.155Z,30.81
2024-04-30T12:39:26.155Z,32.75
2024-04-30T12:40:26.169Z,32.57
2024-04-30T12:41:26.130Z,33.15
2024-04-30T12:42:26.204Z,32.67
2024-04-30T12:43:26.305Z,32.59
2024-04-30T12:44:26.139Z,32.87
2024-04-30T12:45:26.123Z,32.39
2024-04-30T12:46:26.103Z,33.46
2024-04-30T12:47:26.226Z,32.89
2024-04-30T12:48:26.106Z,33.70
2024-04-30T12:49:26.146Z,33.31
2024-04-30T12:50:26.055Z,34.38
2024-04-30T12:51:26.069Z,33.61
2024-04-30T12:52:26.096Z,33.51
2024-04-30T12:53:26.063Z,33.41